EBOS

Ostend-Bruges International Airport

Ostend, Belgium
TAF EBOS 230520Z 2306/2412 07010KT 5000 BKN012 TEMPO 2306/2309 1400 BR BKN002 PROB40 TEMPO 2306/2309 0900 SN BECMG 2308/2310 SCT015 BECMG 2319/2321 VRB03KT
Issued Valid From Valid To
Jan-23 @ 05:20 UTC
(2 hours ago)
Jan-23 @ 06:00 UTC
(an hour ago)
Jan-24 @ 12:00 UTC
(-1 days ago)
Jan-23 @ 06:00 to Jan-23 @ 08:00
TAF EBOS 230520Z 2306/2412 07010KT 5000 BKN012
Wind Visibility Clouds
70° at 10 knots 5,005 meters
  • Broken at 1,200' AGL
Temporary Jan-23 @ 06:00 to Jan-23 @ 09:00
TEMPO 2306/2309 1400 BR BKN002
Visibility Clouds Conditions
1,400 meters
  • Broken at 200' AGL
  • Mist
Temporary  (Probability 40%) Jan-23 @ 06:00 to Jan-23 @ 09:00
PROB40 TEMPO 2306/2309 0900 SN
Visibility Conditions
901 meters
  • Snow
Becoming Jan-23 @ 08:00 to Jan-23 @ 19:00
BECMG 2308/2310 SCT015
Wind Visibility Clouds
70° at 10 knots 5,005 meters
  • Scattered at 1,500' AGL
Becoming Jan-23 @ 19:00 to Jan-24 @ 12:00
BECMG 2319/2321 VRB03KT
Wind Visibility Clouds
Variable at 3 knots 5,005 meters
  • Scattered at 1,500' AGL
TAF EBOS 230520Z 2306/2412 07010KT 5000 BKN012 TEMPO 2306/2309 1400 BR BKN002 PROB40 TEMPO 2306/2309 0900 SN BECMG 2308/2310 SCT015 BECMG 2319/2321 VRB03KT
Issued Jan-23 @ 05:20 UTC
(2 hours ago)
Valid From Jan-23 @ 06:00 UTC
(an hour ago)
Valid To Jan-24 @ 12:00 UTC
(-1 days ago)
Jan-23 @ 06:00 - Jan-23 @ 08:00
Wind Visibility
70° at 10 knots 5,005 meters
Clouds
  • Broken at 1,200' AGL
Temporary Jan-23 @ 06:00 - Jan-23 @ 09:00
Clouds
  • Broken at 200' AGL
Conditions
  • Mist
Probability 40% Temporary Jan-23 @ 06:00 - Jan-23 @ 09:00
Conditions
  • Snow
Becoming Jan-23 @ 08:00 - Jan-23 @ 19:00
Wind Visibility
70° at 10 knots 5,005 meters
Clouds
  • Scattered at 1,500' AGL
Becoming Jan-23 @ 19:00 - Jan-24 @ 12:00
Wind Visibility
Variable at 3 knots 5,005 meters
Clouds
  • Scattered at 1,500' AGL